Time;durP1;ratioP1;P1;durP2;ratioP2;P2;SDS_P1;SDS_P2;PMS_P1;PMS_P2;Temp;Humidity;BMP_temperature;BMP_pressure;BME280_temperature;BME280_humidity;BME280_pressure;Samples;Min_cycle;Max_cycle;Signal;HPM_P1;HPM_P2
2020/12/30 00:00:46;;;;;;;7.83;3.30;;;;;;;9.80;54.56;94707.00;5049168;28;20446;-66
2020/12/30 00:03:12;;;;;;;5.63;2.90;;;;;;;10.00;54.75;94689.56;5049769;28;20770;-66
2020/12/30 00:05:39;;;;;;;6.87;3.20;;;;;;;10.15;54.02;94691.47;5048748;28;20847;-64
2020/12/30 00:08:06;;;;;;;6.07;2.80;;;;;;;10.09;53.89;94703.00;5049266;28;20995;-62
2020/12/30 00:10:32;;;;;;;5.67;2.67;;;;;;;10.18;54.17;94717.16;5049280;28;20828;-64
2020/12/30 00:13:00;;;;;;;6.40;2.80;;;;;;;9.85;54.45;94722.75;5049499;28;20478;-66
2020/12/30 00:15:26;;;;;;;5.20;2.40;;;;;;;9.93;54.71;94724.84;5049031;28;20446;-62
2020/12/30 00:17:53;;;;;;;6.53;3.03;;;;;;;10.03;54.20;94703.97;5049365;28;20443;-65
2020/12/30 00:20:22;;;;;;;7.47;2.97;;;;;;;10.04;54.04;94705.53;5049239;28;20505;-63
2020/12/30 00:22:49;;;;;;;5.90;2.73;;;;;;;9.75;54.91;94706.97;5049367;28;20465;-65
2020/12/30 00:25:16;;;;;;;4.20;2.67;;;;;;;9.86;54.64;94713.84;5046520;28;20443;-67
2020/12/30 00:27:45;;;;;;;6.70;3.50;;;;;;;9.36;55.67;94745.72;5049433;28;20523;-64
2020/12/30 00:30:16;;;;;;;7.13;4.37;;;;;;;9.54;55.32;94721.00;5048758;28;20495;-64
2020/12/30 00:32:44;;;;;;;9.47;4.70;;;;;;;9.58;55.47;94716.84;5049154;28;20518;-65
2020/12/30 00:35:12;;;;;;;7.67;4.37;;;;;;;9.65;54.59;94702.47;5048417;28;20524;-66
2020/12/30 00:37:39;;;;;;;6.77;4.30;;;;;;;9.59;55.42;94726.25;5049161;28;20443;-63
2020/12/30 00:40:07;;;;;;;9.87;4.10;;;;;;;9.54;54.90;94736.69;5048707;28;20518;-64
2020/12/30 00:42:35;;;;;;;8.77;4.30;;;;;;;9.56;54.88;94739.84;5049783;28;20439;-63
2020/12/30 00:45:04;;;;;;;7.23;4.03;;;;;;;9.56;55.32;94711.06;5049170;28;21203;-62
2020/12/30 00:47:31;;;;;;;7.73;4.20;;;;;;;9.56;55.75;94752.94;5048863;28;20542;-65
2020/12/30 00:49:58;;;;;;;7.97;4.20;;;;;;;9.61;55.39;94716.31;5048491;28;20474;-64
2020/12/30 00:52:26;;;;;;;6.67;4.37;;;;;;;9.52;55.56;94729.09;5047049;28;20483;-60
2020/12/30 00:54:57;;;;;;;8.83;4.40;;;;;;;9.30;55.81;94725.81;5046942;28;20439;-63
2020/12/30 00:57:35;;;;;;;6.97;4.20;;;;;;;9.43;56.08;94735.84;5042653;28;20447;-64
2020/12/30 01:00:01;;;;;;;9.43;4.17;;;;;;;9.07;56.58;94716.50;5048008;28;20449;-63
2020/12/30 01:02:48;;;;;;;7.83;4.37;;;;;;;8.85;57.34;94725.47;5047599;28;20591;-61
2020/12/30 01:05:14;;;;;;;10.33;4.87;;;;;;;9.23;56.11;94727.06;5045201;28;20447;-66
2020/12/30 01:07:40;;;;;;;9.80;4.60;;;;;;;9.28;56.04;94708.78;5047985;28;20465;-62
2020/12/30 01:10:07;;;;;;;8.10;4.53;;;;;;;9.38;56.29;94706.25;5047945;28;20443;-63
2020/12/30 01:12:37;;;;;;;9.30;4.20;;;;;;;9.18;56.21;94706.88;5048518;28;20961;-63
2020/12/30 01:15:04;;;;;;;9.67;4.70;;;;;;;9.28;56.12;94696.50;5047861;28;20446;-64
2020/12/30 01:17:31;;;;;;;8.20;4.63;;;;;;;9.43;55.09;94714.13;5048454;28;20972;-62
2020/12/30 01:19:57;;;;;;;7.27;4.57;;;;;;;9.42;54.99;94712.53;5047495;28;21047;-62
2020/12/30 01:22:23;;;;;;;9.27;4.67;;;;;;;9.38;55.64;94701.03;5048201;28;20493;-65
2020/12/30 01:24:50;;;;;;;6.90;4.53;;;;;;;9.23;56.02;94688.66;5047833;28;20450;-65
2020/12/30 01:27:16;;;;;;;10.20;5.33;;;;;;;9.33;55.89;94714.06;5047727;28;20504;-64
2020/12/30 01:29:43;;;;;;;11.17;5.60;;;;;;;9.15;56.53;94707.41;5046934;28;20486;-65
2020/12/30 01:32:09;;;;;;;11.67;6.13;;;;;;;9.23;56.14;94699.88;5048168;28;20447;-66
2020/12/30 01:34:36;;;;;;;12.57;6.03;;;;;;;8.94;57.15;94682.16;5044527;28;21074;-63
2020/12/30 01:37:02;;;;;;;13.73;6.33;;;;;;;8.82;57.20;94691.97;5048190;28;20981;-64
2020/12/30 01:39:28;;;;;;;19.37;7.97;;;;;;;8.72;57.48;94687.44;5047411;28;20439;-63
2020/12/30 01:41:58;;;;;;;13.30;6.80;;;;;;;8.93;57.36;94677.97;5045003;28;20526;-65
2020/12/30 01:44:25;;;;;;;12.47;5.70;;;;;;;9.12;56.65;94669.47;5047384;28;20439;-62
2020/12/30 01:46:57;;;;;;;11.17;5.27;;;;;;;9.09;57.06;94672.59;5042237;28;20443;-65
2020/12/30 01:49:25;;;;;;;11.53;5.37;;;;;;;9.12;56.88;94682.53;5047328;28;20498;-64
2020/12/30 01:51:52;;;;;;;10.27;5.20;;;;;;;9.14;56.48;94677.84;5047700;28;20469;-64
2020/12/30 01:54:20;;;;;;;9.73;3.87;;;;;;;9.05;57.18;94681.19;5046791;28;20979;-66
2020/12/30 01:56:47;;;;;;;9.17;3.77;;;;;;;9.05;57.49;94666.28;5047844;28;20498;-64
2020/12/30 01:59:18;;;;;;;5.93;3.27;;;;;;;9.14;57.39;94675.25;5047354;28;20431;-63
2020/12/30 02:02:07;;;;;;;6.27;3.17;;;;;;;9.11;56.60;94674.97;5047515;28;20431;-63
2020/12/30 02:04:42;;;;;;;7.23;3.23;;;;;;;9.11;57.31;94652.22;5046642;28;20439;-65
2020/12/30 02:07:09;;;;;;;6.37;3.03;;;;;;;9.02;57.10;94655.56;5047411;28;20816;-62
2020/12/30 02:09:38;;;;;;;6.47;3.40;;;;;;;-140.05;100.00;61859.38;5044107;28;20899;-64
2020/12/30 02:12:05;;;;;;;10.37;3.30;;;;;;;-140.05;100.00;61859.38;5047529;28;20810;-63
2020/12/30 02:14:31;;;;;;;5.47;3.27;;;;;;;-140.05;100.00;61859.38;5047299;28;20430;-63
2020/12/30 02:16:58;;;;;;;7.23;3.77;;;;;;;-140.05;100.00;61859.38;5051305;28;20447;-67
2020/12/30 02:19:24;;;;;;;8.77;3.80;;;;;;;-140.05;100.00;61859.38;5047215;28;20435;-63
2020/12/30 02:21:55;;;;;;;7.23;3.83;;;;;;;-140.05;100.00;61859.38;5047345;28;20865;-64
2020/12/30 02:24:28;;;;;;;6.70;3.63;;;;;;;-140.05;100.00;61859.38;5046889;28;20443;-62
2020/12/30 02:26:56;;;;;;;9.00;4.23;;;;;;;-140.05;100.00;61859.38;5047349;28;20450;-63
2020/12/30 02:29:33;;;;;;;6.70;3.97;;;;;;;-140.05;100.00;61859.38;5046793;28;21007;-66
2020/12/30 02:32:00;;;;;;;6.80;3.60;;;;;;;-140.05;100.00;61859.38;5045196;28;20458;-65
2020/12/30 02:34:27;;;;;;;10.10;3.67;;;;;;;-140.05;100.00;61859.38;5046197;28;20466;-66
2020/12/30 02:36:53;;;;;;;6.67;3.80;;;;;;;-140.05;100.00;61859.38;5047309;28;20516;-65
2020/12/30 02:39:20;;;;;;;8.90;4.20;;;;;;;-140.05;100.00;61859.38;5047087;28;20430;-66
2020/12/30 02:41:50;;;;;;;7.53;4.60;;;;;;;-140.05;100.00;61859.38;5047245;28;20577;-66
2020/12/30 02:44:18;;;;;;;7.97;4.37;;;;;;;-140.05;100.00;61859.38;5044265;28;20815;-65
2020/12/30 02:46:44;;;;;;;8.83;4.43;;;;;;;-140.05;100.00;61859.38;5046628;28;21006;-66
2020/12/30 02:49:11;;;;;;;6.17;4.03;;;;;;;9.02;57.10;94655.56;5046061;28;20479;-63
2020/12/30 02:51:42;;;;;;;10.97;3.83;;;;;;;8.33;59.61;94644.28;5044291;28;20900;-67
2020/12/30 02:54:09;;;;;;;10.40;3.93;;;;;;;8.26;59.29;94671.63;5046479;28;20789;-66
2020/12/30 02:56:36;;;;;;;11.07;4.70;;;;;;;8.32;58.97;94644.53;5047249;28;20494;-63
2020/12/30 02:59:03;;;;;;;10.57;4.57;;;;;;;8.43;58.42;94636.53;5047012;28;20550;-64
2020/12/30 03:01:30;;;;;;;10.60;5.27;;;;;;;8.52;58.22;94631.66;5047054;28;20435;-63
2020/12/30 03:03:56;;;;;;;10.57;7.00;;;;;;;8.63;58.24;94641.94;5043786;28;20463;-64
2020/12/30 03:06:24;;;;;;;11.83;6.70;;;;;;;8.37;58.20;94671.47;5047092;28;20435;-66
2020/12/30 03:08:51;;;;;;;12.23;6.50;;;;;;;8.07;59.15;94658.09;5046561;28;20467;-64
2020/12/30 03:11:18;;;;;;;12.27;6.23;;;;;;;8.22;58.99;94639.97;5044460;28;20480;-65
2020/12/30 03:13:44;;;;;;;10.67;6.00;;;;;;;8.32;58.49;94645.31;5046012;28;20475;-62
2020/12/30 03:16:11;;;;;;;11.20;6.30;;;;;;;8.44;58.25;94635.53;5046821;28;20439;-65
2020/12/30 03:18:37;;;;;;;12.60;7.77;;;;;;;8.52;57.89;94629.81;5047002;28;20529;-64
2020/12/30 03:21:03;;;;;;;12.80;7.90;;;;;;;8.38;57.85;94644.31;5047090;28;20446;-66
2020/12/30 03:23:30;;;;;;;12.40;6.60;;;;;;;8.33;57.50;94640.88;5046813;28;20446;-65
2020/12/30 03:25:56;;;;;;;10.33;6.33;;;;;;;8.42;57.88;94648.03;5046854;28;21027;-64
2020/12/30 03:28:22;;;;;;;12.33;6.10;;;;;;;8.33;57.54;94652.13;5046977;28;20509;-64
2020/12/30 03:30:49;;;;;;;8.53;5.63;;;;;;;8.28;58.35;94633.81;5049634;28;20805;-62
2020/12/30 03:33:15;;;;;;;9.57;6.23;;;;;;;8.15;59.01;94649.81;5050737;28;20813;-65
2020/12/30 03:35:41;;;;;;;11.27;5.13;;;;;;;8.34;57.79;94642.47;5049945;28;20917;-63
2020/12/30 03:38:08;;;;;;;9.10;5.03;;;;;;;8.52;57.40;94636.88;5050636;28;20446;-67
2020/12/30 03:40:34;;;;;;;11.83;5.43;;;;;;;8.51;57.91;94628.25;5049962;28;20544;-64
2020/12/30 03:43:01;;;;;;;8.10;5.07;;;;;;;8.59;57.87;94624.41;5050451;28;20975;-64
2020/12/30 03:45:27;;;;;;;11.70;5.87;;;;;;;8.44;57.83;94638.13;5050000;28;20948;-65
2020/12/30 03:47:53;;;;;;;10.20;5.17;;;;;;;8.30;58.42;94646.59;5050907;28;20573;-63
2020/12/30 03:50:20;;;;;;;11.63;4.97;;;;;;;8.47;57.88;94616.72;5050653;28;20439;-63
2020/12/30 03:52:46;;;;;;;10.93;4.57;;;;;;;8.31;58.03;94643.75;5050379;28;20435;-65
2020/12/30 03:55:13;;;;;;;11.20;4.47;;;;;;;8.45;58.24;94634.47;5050232;28;20439;-63
2020/12/30 03:57:39;;;;;;;9.73;4.87;;;;;;;8.66;57.72;94627.59;5050782;28;20945;-65
2020/12/30 04:00:05;;;;;;;7.80;5.17;;;;;;;8.63;57.72;94631.47;5049879;28;20454;-64
2020/12/30 04:02:38;;;;;;;11.60;5.20;;;;;;;8.56;57.21;94636.13;5050284;28;20431;-64
2020/12/30 04:05:04;;;;;;;6.67;4.63;;;;;;;8.52;57.56;94619.38;5049480;28;20446;-63
2020/12/30 04:07:31;;;;;;;9.07;4.53;;;;;;;8.70;57.36;94626.06;5050308;28;20439;-65
2020/12/30 04:09:57;;;;;;;11.03;6.00;;;;;;;8.09;58.97;94645.59;5049304;28;20597;-63
2020/12/30 04:12:24;;;;;;;8.53;5.17;;;;;;;8.33;58.43;94607.75;5050064;28;20435;-65
2020/12/30 04:14:50;;;;;;;7.83;5.60;;;;;;;8.25;58.42;94644.72;5049167;28;20438;-67
2020/12/30 04:17:17;;;;;;;10.07;5.43;;;;;;;7.92;58.90;94655.31;5049711;28;20884;-65
2020/12/30 04:19:44;;;;;;;12.63;6.40;;;;;;;8.09;58.90;94609.06;5049450;28;20850;-67
2020/12/30 04:22:11;;;;;;;11.23;5.90;;;;;;;8.22;58.55;94608.66;5049937;28;20533;-62
2020/12/30 04:24:37;;;;;;;15.43;6.23;;;;;;;8.00;58.65;94626.19;5049385;28;20442;-65
2020/12/30 04:27:04;;;;;;;11.70;6.20;;;;;;;7.69;59.19;94639.91;5049528;28;20443;-62
2020/12/30 04:29:30;;;;;;;12.90;6.30;;;;;;;7.68;60.08;94640.97;5048919;28;21008;-65
2020/12/30 04:31:56;;;;;;;11.43;6.07;;;;;;;8.00;59.17;94649.66;5049586;28;20929;-65
2020/12/30 04:34:23;;;;;;;11.80;6.03;;;;;;;8.14;58.39;94637.78;5048996;28;20455;-63
2020/12/30 04:36:49;;;;;;;11.60;6.37;;;;;;;8.26;58.04;94630.66;5049356;28;20438;-62
2020/12/30 04:39:16;;;;;;;10.30;6.25;;;;;;;7.56;60.67;94641.06;5048957;28;20450;-60
2020/12/30 04:41:45;;;;;;;9.30;6.00;;;;;;;7.85;59.72;94612.97;5048372;28;20224;-64
2020/12/30 04:44:16;;;;;;;10.03;5.57;;;;;;;8.08;58.79;94617.91;5048761;28;20514;-63
2020/12/30 04:46:44;;;;;;;13.63;5.13;;;;;;;7.82;59.85;94665.63;5047506;28;20450;-64
2020/12/30 04:49:11;;;;;;;10.73;5.68;;;;;;;7.84;59.49;94607.00;5048825;28;20228;-65
2020/12/30 04:51:38;;;;;;;10.63;5.73;;;;;;;7.98;59.10;94633.47;5049856;28;20196;-65
2020/12/30 04:54:05;;;;;;;9.60;5.67;;;;;;;8.15;58.99;94634.16;5048783;28;20951;-62
2020/12/30 04:56:40;;;;;;;9.47;5.97;;;;;;;8.10;58.89;94632.28;5049436;28;20443;-62
2020/12/30 04:59:09;;;;;;;9.57;5.70;;;;;;;8.17;58.58;94621.66;5047399;28;20817;-64
2020/12/30 05:02:11;;;;;;;9.23;5.60;;;;;;;8.31;58.69;94628.09;5048754;28;20765;-63
2020/12/30 05:04:40;;;;;;;9.13;4.33;;;;;;;7.77;59.62;94636.91;5046246;28;20504;-63
2020/12/30 05:07:13;;;;;;;8.50;4.50;;;;;;;8.14;58.40;94611.69;5049702;28;20526;-64
2020/12/30 05:09:42;;;;;;;9.43;4.73;;;;;;;7.88;59.25;94656.84;5046216;28;20561;-63
2020/12/30 05:12:13;;;;;;;9.17;4.83;;;;;;;7.98;59.57;94639.47;5049871;28;20548;-61
2020/12/30 05:14:41;;;;;;;10.07;4.83;;;;;;;8.19;58.57;94598.72;5046160;28;20529;-63
2020/12/30 05:17:10;;;;;;;7.73;4.43;;;;;;;8.13;58.64;94621.38;5050141;28;20443;-62
2020/12/30 05:19:38;;;;;;;8.17;3.70;;;;;;;8.18;58.22;94629.25;5048792;28;20434;-62
2020/12/30 05:22:05;;;;;;;7.97;4.27;;;;;;;8.08;59.40;94623.16;5049628;28;20463;-62
2020/12/30 05:24:33;;;;;;;16.47;4.43;;;;;;;8.19;58.18;94630.03;5048399;28;20431;-67
2020/12/30 05:27:00;;;;;;;9.73;4.30;;;;;;;8.22;58.52;94645.19;5045886;28;20522;-64
2020/12/30 05:29:27;;;;;;;6.40;3.93;;;;;;;8.19;58.64;94614.38;5048314;28;20489;-64
2020/12/30 05:31:55;;;;;;;7.90;4.37;;;;;;;8.33;58.99;94594.69;5048552;28;20556;-65
2020/12/30 05:34:22;;;;;;;9.03;4.30;;;;;;;8.33;58.30;94599.91;5045537;28;20490;-63
2020/12/30 05:36:52;;;;;;;9.63;4.80;;;;;;;7.97;59.35;94637.13;5048022;28;20928;-64
2020/12/30 05:39:37;;;;;;;10.43;5.03;;;;;;;8.03;59.11;94576.91;5045136;28;20447;-65
2020/12/30 05:42:15;;;;;;;12.43;5.15;;;;;;;8.22;59.19;94574.72;5045860;28;21041;-63
2020/12/30 05:44:43;;;;;;;10.13;4.33;;;;;;;8.12;59.30;94566.78;5045945;28;20283;-64
2020/12/30 05:47:14;;;;;;;14.50;6.23;;;;;;;8.15;59.05;94613.28;5048186;28;20851;-65
2020/12/30 05:49:43;;;;;;;16.20;5.00;;;;;;;8.23;59.00;94605.00;5045374;28;20471;-65
2020/12/30 05:52:19;;;;;;;14.37;4.83;;;;;;;8.27;58.94;94595.66;5047874;28;20431;-66
2020/12/30 05:55:08;;;;;;;9.60;4.50;;;;;;;8.39;58.49;94588.50;5045538;28;20427;-66
2020/12/30 05:57:36;;;;;;;14.30;5.23;;;;;;;8.22;58.65;94598.22;5047421;28;20439;-63
2020/12/30 06:00:13;;;;;;;11.97;4.90;;;;;;;8.41;58.54;94601.28;5046973;28;20449;-65
2020/12/30 06:02:42;;;;;;;9.80;5.10;;;;;;;8.41;58.42;94612.50;5045366;28;20435;-66
2020/12/30 06:05:13;;;;;;;10.67;4.97;;;;;;;8.19;59.43;94635.25;5047466;28;20439;-65
2020/12/30 06:07:41;;;;;;;16.00;6.77;;;;;;;8.31;58.32;94635.91;5042729;28;20520;-63
2020/12/30 06:10:09;;;;;;;11.30;6.17;;;;;;;8.38;58.25;94623.44;5047495;28;20497;-63
2020/12/30 06:12:51;;;;;;;13.27;5.70;;;;;;;8.47;58.84;94602.88;5048227;28;20442;-64
2020/12/30 06:15:29;;;;;;;17.93;6.40;;;;;;;8.37;58.58;94611.44;5048271;28;20438;-62
2020/12/30 06:17:57;;;;;;;15.50;5.87;;;;;;;8.50;58.63;94590.16;5048697;28;20487;-64
2020/12/30 06:20:36;;;;;;;12.67;5.97;;;;;;;8.38;58.82;94628.66;5046027;28;20447;-66
2020/12/30 06:23:07;;;;;;;14.20;5.50;;;;;;;8.39;57.44;94635.47;5045146;28;20450;-62
2020/12/30 06:25:36;;;;;;;17.40;5.20;;;;;;;8.62;56.68;94629.13;5047081;28;20534;-62
2020/12/30 06:28:14;;;;;;;21.33;5.93;;;;;;;8.65;57.14;94634.63;5045059;28;20491;-65
2020/12/30 06:30:43;;;;;;;10.83;5.10;;;;;;;8.54;57.14;94640.81;5044463;28;20439;-64
2020/12/30 06:33:10;;;;;;;11.63;4.90;;;;;;;8.74;56.50;94627.91;5048182;28;20889;-64
2020/12/30 06:35:38;;;;;;;12.00;5.50;;;;;;;8.93;56.60;94630.94;5047518;28;20459;-65
2020/12/30 06:38:17;;;;;;;29.13;6.47;;;;;;;8.88;56.38;94655.22;5048863;28;20447;-62
2020/12/30 06:41:07;;;;;;;10.57;4.70;;;;;;;8.73;56.85;94655.09;5045972;28;20641;-64
2020/12/30 06:43:49;;;;;;;11.37;5.33;;;;;;;8.83;57.29;94657.75;5047869;28;20949;-64
2020/12/30 06:46:23;;;;;;;9.33;4.60;;;;;;;8.92;57.00;94634.59;5047719;28;20439;-65
2020/12/30 06:48:57;;;;;;;16.90;6.03;;;;;;;8.93;56.74;94657.06;5047346;28;20518;-65
2020/12/30 06:51:35;;;;;;;14.20;6.57;;;;;;;8.68;57.87;94670.72;5046227;28;20517;-66
2020/12/30 06:54:02;;;;;;;17.60;5.90;;;;;;;8.70;57.33;94662.63;5046319;28;21014;-63
2020/12/30 06:56:45;;;;;;;11.83;5.60;;;;;;;8.83;57.54;94641.31;5048715;28;20450;-63
2020/12/30 06:59:26;;;;;;;16.67;5.83;;;;;;;8.92;56.77;94640.59;5044341;28;20494;-64
2020/12/30 07:01:57;;;;;;;17.40;5.27;;;;;;;9.05;57.03;94655.06;5044946;28;20459;-63
2020/12/30 07:04:25;;;;;;;10.30;6.00;;;;;;;9.09;56.75;94667.38;5046003;28;20469;-63
2020/12/30 07:06:53;;;;;;;17.00;6.60;;;;;;;9.05;56.88;94671.50;5050328;28;20437;-63
2020/12/30 07:09:37;;;;;;;13.93;6.27;;;;;;;9.19;56.47;94683.13;5049951;28;20478;-68
2020/12/30 07:12:05;;;;;;;13.73;5.60;;;;;;;9.08;56.82;94697.16;5050366;28;20435;-62
2020/12/30 07:14:34;;;;;;;16.30;6.00;;;;;;;9.27;56.56;94683.69;5049558;28;20980;-65
2020/12/30 07:17:05;;;;;;;14.47;5.30;;;;;;;9.40;56.73;94680.66;5050557;28;20461;-65
2020/12/30 07:19:42;;;;;;;10.60;5.03;;;;;;;9.35;56.87;94670.94;5049586;28;20862;-66
2020/12/30 07:22:13;;;;;;;10.00;5.60;;;;;;;9.23;56.55;94672.16;5049337;28;20466;-68
2020/12/30 07:24:58;;;;;;;14.77;5.70;;;;;;;9.30;64.08;94698.88;5047331;28;20439;-63
2020/12/30 07:27:29;;;;;;;12.03;5.50;;;;;;;9.45;58.79;94688.53;5049340;28;21709;-76
2020/12/30 07:29:55;;;;;;;12.07;5.13;;;;;;;9.57;57.42;94676.03;5049848;28;20510;-73
2020/12/30 07:32:22;;;;;;;13.53;5.13;;;;;;;9.58;55.77;94690.69;5050886;28;20473;-64
2020/12/30 07:34:50;;;;;;;13.97;5.50;;;;;;;9.61;56.33;94684.94;5050182;28;20462;-62
2020/12/30 07:37:17;;;;;;;15.43;5.30;;;;;;;9.86;55.91;94682.44;5050718;28;20445;-68
2020/12/30 07:39:46;;;;;;;29.60;16.87;;;;;;;9.82;55.83;94707.53;5050725;28;20443;-65
2020/12/30 07:42:14;;;;;;;20.17;8.23;;;;;;;9.84;55.09;94694.97;5050517;28;20443;-65
2020/12/30 07:44:44;;;;;;;114.37;78.27;;;;;;;9.90;55.63;94681.69;5045931;28;20435;-64
2020/12/30 07:47:11;;;;;;;19.33;7.67;;;;;;;9.91;55.49;94671.97;5049156;28;20445;-65
2020/12/30 07:49:38;;;;;;;19.73;5.67;;;;;;;9.88;55.48;94680.34;5049583;28;20569;-67
2020/12/30 07:52:05;;;;;;;16.63;6.50;;;;;;;9.97;55.33;94684.84;5050281;28;20446;-64
2020/12/30 07:54:32;;;;;;;197.93;118.97;;;;;;;10.08;55.53;94669.97;5050095;28;20427;-64
2020/12/30 07:57:13;;;;;;;38.90;23.90;;;;;;;10.18;54.89;94693.59;5049966;28;20446;-63
2020/12/30 07:59:41;;;;;;;131.00;85.60;;;;;;;10.27;55.67;94689.44;5046981;28;20437;-63
2020/12/30 08:02:12;;;;;;;19.33;6.83;;;;;;;10.28;54.40;94690.19;5045277;28;20463;-66
2020/12/30 08:04:40;;;;;;;13.73;5.57;;;;;;;10.33;54.32;94711.19;5041298;28;20653;-66
2020/12/30 08:07:15;;;;;;;22.73;5.87;;;;;;;10.41;54.27;94695.75;5050317;28;20526;-66
2020/12/30 08:09:43;;;;;;;19.43;8.97;;;;;;;10.46;54.22;94693.13;5049345;28;20577;-67
2020/12/30 08:12:11;;;;;;;21.67;11.30;;;;;;;10.53;53.66;94688.41;5050203;28;20434;-64
2020/12/30 08:14:39;;;;;;;18.87;7.20;;;;;;;10.49;53.78;94676.88;5049829;28;20439;-70
2020/12/30 08:17:08;;;;;;;174.17;133.40;;;;;;;10.30;54.78;94662.72;5047597;28;20795;-67
2020/12/30 08:19:45;;;;;;;11.93;6.73;;;;;;;10.30;53.35;94696.75;5049844;28;20534;-62
2020/12/30 08:22:24;;;;;;;15.13;5.27;;;;;;;10.58;52.69;94700.75;5047784;28;20879;-69
2020/12/30 08:24:55;;;;;;;12.53;5.03;;;;;;;10.65;52.57;94686.38;5048888;28;20442;-68
2020/12/30 08:27:30;;;;;;;12.60;5.17;;;;;;;10.65;53.25;94670.63;5053835;28;20518;-69
2020/12/30 08:30:00;;;;;;;10.23;4.20;;;;;;;10.78;53.26;94682.44;5049477;28;21079;-70
2020/12/30 08:32:36;;;;;;;9.27;3.97;;;;;;;10.72;52.36;94683.47;5049369;28;20447;-68
2020/12/30 08:35:08;;;;;;;13.70;4.37;;;;;;;10.82;53.70;94668.53;5046538;28;20528;-64
2020/12/30 08:37:38;;;;;;;11.07;3.87;;;;;;;10.88;52.97;94670.13;5049512;28;20430;-65
2020/12/30 08:40:04;;;;;;;15.33;3.53;;;;;;;11.02;51.62;94684.28;5046481;28;20443;-66
2020/12/30 08:42:53;;;;;;;14.27;5.10;;;;;;;11.05;51.19;94681.13;5048644;28;20431;-64
2020/12/30 08:45:33;;;;;;;11.87;4.63;;;;;;;11.18;50.71;94662.22;5046413;28;20449;-69
2020/12/30 08:48:14;;;;;;;9.50;4.20;;;;;;;11.28;51.16;94673.78;5048505;28;20747;-75
2020/12/30 08:50:41;;;;;;;10.80;4.00;;;;;;;11.24;51.57;94648.06;5048337;28;20467;-67
2020/12/30 08:53:08;;;;;;;16.40;4.60;;;;;;;11.44;50.90;94647.22;5048042;28;20883;-67
2020/12/30 08:55:36;;;;;;;19.60;6.20;;;;;;;11.52;51.34;94645.91;5048354;28;20513;-68
2020/12/30 08:58:02;;;;;;;14.63;5.00;;;;;;;11.59;50.33;94644.56;5048257;28;20848;-68
2020/12/30 09:00:36;;;;;;;11.33;4.13;;;;;;;11.51;48.99;94653.00;5048277;28;20479;-66
2020/12/30 09:03:16;;;;;;;17.57;4.47;;;;;;;11.68;49.06;94631.72;5045665;28;21050;-66
2020/12/30 09:05:53;;;;;;;12.80;4.60;;;;;;;11.77;50.15;94641.38;5048081;28;20435;-65
2020/12/30 09:08:23;;;;;;;97.13;65.03;;;;;;;12.07;48.96;94635.22;5047914;28;21331;-64
2020/12/30 09:10:49;;;;;;;362.43;212.93;;;;;;;12.32;47.70;94639.56;5047921;28;20518;-65
2020/12/30 09:13:17;;;;;;;14.30;4.57;;;;;;;12.66;46.94;94638.56;5048118;28;20542;-66
2020/12/30 09:15:45;;;;;;;10.50;3.30;;;;;;;12.64;47.26;94630.16;5045109;28;20443;-68
2020/12/30 09:18:12;;;;;;;7.33;2.43;;;;;;;12.58;47.43;94620.72;5048503;28;20449;-64
2020/12/30 09:20:40;;;;;;;12.07;2.60;;;;;;;12.88;46.83;94624.97;5047925;28;20576;-68
2020/12/30 09:23:08;;;;;;;8.57;2.07;;;;;;;12.99;46.80;94611.44;5048412;28;20559;-67
2020/12/30 09:25:36;;;;;;;11.30;2.30;;;;;;;13.28;46.08;94613.34;5047614;28;20904;-68
2020/12/30 09:28:16;;;;;;;7.53;1.97;;;;;;;13.36;45.34;94625.91;5047146;28;20420;-68
2020/12/30 09:30:43;;;;;;;6.73;2.90;;;;;;;13.47;44.98;94611.53;5047131;28;20430;-68
2020/12/30 09:33:18;;;;;;;6.00;1.93;;;;;;;13.76;44.50;94612.25;5047881;28;20428;-68
2020/12/30 09:35:46;;;;;;;7.63;2.00;;;;;;;14.23;43.94;94620.13;5047570;28;20438;-66
2020/12/30 09:38:21;;;;;;;22.33;9.13;;;;;;;14.68;44.48;94616.06;5048427;28;20431;-66
2020/12/30 09:40:50;;;;;;;23.13;11.73;;;;;;;14.45;44.25;94601.88;5045337;28;20514;-67
2020/12/30 09:43:19;;;;;;;27.07;11.70;;;;;;;14.13;45.21;94604.44;5047458;28;20481;-67
2020/12/30 09:45:47;;;;;;;16.53;8.90;;;;;;;14.54;46.20;94592.28;5045185;28;20500;-68
2020/12/30 09:48:19;;;;;;;11.77;5.53;;;;;;;14.62;45.91;94589.00;5048052;28;20427;-65
2020/12/30 09:50:47;;;;;;;35.90;24.90;;;;;;;15.18;43.76;94581.72;5044765;28;20439;-63
2020/12/30 09:53:14;;;;;;;28.67;13.60;;;;;;;15.36;43.38;94574.81;5047976;28;20493;-67
2020/12/30 09:55:45;;;;;;;18.17;7.93;;;;;;;15.60;42.57;94574.66;5047912;28;20531;-66
2020/12/30 09:58:12;;;;;;;10.13;2.97;;;;;;;16.00;40.25;94568.56;5049763;28;20507;-65
2020/12/30 10:00:39;;;;;;;5.93;1.57;;;;;;;16.52;39.07;94556.56;5047568;28;20437;-66
2020/12/30 10:03:06;;;;;;;7.10;2.00;;;;;;;17.07;38.72;94550.72;5045834;28;20454;-66
2020/12/30 10:05:32;;;;;;;7.53;1.73;;;;;;;17.22;36.64;94560.91;5047246;28;20442;-63
2020/12/30 10:07:59;;;;;;;7.60;1.93;;;;;;;17.21;37.02;94551.41;5047969;28;20439;-67
2020/12/30 10:10:26;;;;;;;8.07;1.90;;;;;;;16.87;37.16;94561.81;5045604;28;20565;-66
2020/12/30 10:12:53;;;;;;;9.57;2.43;;;;;;;16.03;36.08;94570.59;5048208;28;20981;-67
2020/12/30 10:15:20;;;;;;;7.33;1.80;;;;;;;15.62;35.19;94535.53;5047008;28;20431;-70
2020/12/30 10:17:47;;;;;;;7.13;1.40;;;;;;;15.59;34.77;94536.09;5045064;28;20964;-67
2020/12/30 10:20:14;;;;;;;24.87;15.70;;;;;;;15.36;34.70;94548.41;5046884;28;20983;-65
2020/12/30 10:22:42;;;;;;;135.17;93.67;;;;;;;15.45;35.89;94556.47;5046717;28;20822;-67
2020/12/30 10:25:12;;;;;;;35.13;23.67;;;;;;;15.38;38.35;94550.75;5046673;28;20513;-65
2020/12/30 10:27:39;;;;;;;7.10;2.30;;;;;;;15.23;39.55;94541.25;5047077;28;20453;-65
2020/12/30 10:30:07;;;;;;;10.53;2.17;;;;;;;14.95;40.21;94543.06;5043670;28;20458;-70
2020/12/30 10:32:35;;;;;;;7.23;2.20;;;;;;;14.73;40.26;94537.66;5047195;28;20451;-67
2020/12/30 10:35:03;;;;;;;7.57;2.30;;;;;;;14.59;40.10;94536.84;5046489;28;20470;-67
2020/12/30 10:37:30;;;;;;;5.77;2.73;;;;;;;14.39;41.18;94544.28;5047251;28;20443;-67
2020/12/30 10:39:56;;;;;;;9.83;2.97;;;;;;;14.31;41.32;94537.78;5050767;28;20449;-69
2020/12/30 10:42:23;;;;;;;9.67;2.77;;;;;;;14.25;42.05;94538.91;5050209;28;20522;-68
2020/12/30 10:44:49;;;;;;;5.67;1.93;;;;;;;14.28;42.12;94527.84;5049836;28;20457;-64
2020/12/30 10:47:16;;;;;;;12.20;2.10;;;;;;;14.19;43.04;94524.25;5050481;28;20443;-66
2020/12/30 10:49:42;;;;;;;4.30;1.73;;;;;;;14.26;41.70;94535.22;5050475;28;20569;-68
2020/12/30 10:52:09;;;;;;;6.30;2.60;;;;;;;14.08;43.34;94526.25;5051533;28;20506;-65
2020/12/30 10:54:42;;;;;;;8.40;2.10;;;;;;;14.07;42.24;94503.59;5049929;28;20866;-68
2020/12/30 10:57:09;;;;;;;8.30;2.27;;;;;;;13.99;42.83;94514.00;5047711;28;20435;-66
2020/12/30 10:59:36;;;;;;;5.07;2.00;;;;;;;14.05;42.96;94515.50;5050143;28;20469;-67
2020/12/30 11:02:03;;;;;;;9.03;4.03;;;;;;;14.17;42.64;94510.59;5050351;28;20443;-64
2020/12/30 11:04:30;;;;;;;11.27;2.53;;;;;;;14.23;42.64;94493.63;5050127;28;20431;-64
2020/12/30 11:06:58;;;;;;;10.03;3.40;;;;;;;14.27;42.45;94515.72;5050763;28;20956;-64
2020/12/30 11:09:24;;;;;;;32.43;19.83;;;;;;;14.32;42.21;94502.47;5050224;28;20481;-67
2020/12/30 11:11:51;;;;;;;40.13;27.37;;;;;;;14.35;42.25;94507.16;5050206;28;20438;-66
2020/12/30 11:14:17;;;;;;;5.83;3.10;;;;;;;14.41;41.87;94503.38;5050194;28;20529;-61
2020/12/30 11:16:48;;;;;;;11.67;2.80;;;;;;;14.39;42.05;94516.06;5050422;28;20506;-67
2020/12/30 11:19:15;;;;;;;10.33;2.67;;;;;;;14.37;41.21;94493.69;5049795;28;20439;-64
2020/12/30 11:21:41;;;;;;;33.00;6.17;;;;;;;14.54;42.44;94494.75;5049494;28;20435;-63
2020/12/30 11:24:08;;;;;;;19.23;3.93;;;;;;;14.45;42.02;94480.63;5046191;28;20430;-66
2020/12/30 11:26:34;;;;;;;12.70;3.27;;;;;;;14.38;41.69;94503.94;5048610;28;20533;-67
2020/12/30 11:29:00;;;;;;;10.33;3.30;;;;;;;14.53;40.97;94482.63;5047213;28;20478;-66
2020/12/30 11:31:27;;;;;;;18.03;3.77;;;;;;;14.62;41.62;94491.44;5047850;28;20427;-66
2020/12/30 11:33:53;;;;;;;14.63;3.70;;;;;;;14.80;41.24;94487.94;5049827;28;20543;-66
2020/12/30 11:36:26;;;;;;;10.27;3.80;;;;;;;14.92;41.34;94485.63;5050591;28;20439;-63
2020/12/30 11:38:53;;;;;;;6.43;2.97;;;;;;;15.20;38.92;94471.34;5048250;28;20466;-64
2020/12/30 11:41:19;;;;;;;7.17;2.40;;;;;;;15.38;38.04;94471.56;5050486;28;20430;-64